sensor_id;sensor_type;location;lat;lon;timestamp;P1;durP1;ratioP1;P2;durP2;ratioP2
9465;SDS011;4771;48.726;9.006;2023-08-12T00:01:34;3.78;;;3.38;;
9465;SDS011;4771;48.726;9.006;2023-08-12T00:04:01;6.32;;;3.80;;
9465;SDS011;4771;48.726;9.006;2023-08-12T00:06:28;4.32;;;3.13;;
9465;SDS011;4771;48.726;9.006;2023-08-12T00:08:55;4.57;;;3.42;;
9465;SDS011;4771;48.726;9.006;2023-08-12T00:11:22;5.07;;;3.10;;
9465;SDS011;4771;48.726;9.006;2023-08-12T00:13:49;3.50;;;3.20;;
9465;SDS011;4771;48.726;9.006;2023-08-12T00:16:16;3.63;;;3.33;;
9465;SDS011;4771;48.726;9.006;2023-08-12T00:18:44;3.83;;;3.42;;
9465;SDS011;4771;48.726;9.006;2023-08-12T00:21:11;4.63;;;3.50;;
9465;SDS011;4771;48.726;9.006;2023-08-12T00:23:39;4.10;;;3.17;;
9465;SDS011;4771;48.726;9.006;2023-08-12T00:26:08;4.85;;;3.00;;
9465;SDS011;4771;48.726;9.006;2023-08-12T00:28:35;4.88;;;3.20;;
9465;SDS011;4771;48.726;9.006;2023-08-12T00:31:02;4.57;;;3.50;;
9465;SDS011;4771;48.726;9.006;2023-08-12T00:33:29;3.55;;;3.25;;
9465;SDS011;4771;48.726;9.006;2023-08-12T00:35:57;3.85;;;3.20;;
9465;SDS011;4771;48.726;9.006;2023-08-12T00:38:24;3.58;;;3.22;;
9465;SDS011;4771;48.726;9.006;2023-08-12T00:40:51;5.32;;;3.10;;
9465;SDS011;4771;48.726;9.006;2023-08-12T00:43:18;3.33;;;2.90;;
9465;SDS011;4771;48.726;9.006;2023-08-12T00:45:45;3.78;;;3.20;;
9465;SDS011;4771;48.726;9.006;2023-08-12T00:48:12;4.90;;;3.70;;
9465;SDS011;4771;48.726;9.006;2023-08-12T00:50:40;5.30;;;3.35;;
9465;SDS011;4771;48.726;9.006;2023-08-12T00:53:09;7.47;;;3.40;;
9465;SDS011;4771;48.726;9.006;2023-08-12T00:55:38;5.43;;;3.38;;
9465;SDS011;4771;48.726;9.006;2023-08-12T00:58:05;4.57;;;3.67;;
9465;SDS011;4771;48.726;9.006;2023-08-12T01:00:32;5.47;;;3.33;;
9465;SDS011;4771;48.726;9.006;2023-08-12T01:03:00;3.72;;;3.28;;
9465;SDS011;4771;48.726;9.006;2023-08-12T01:05:29;4.07;;;3.30;;
9465;SDS011;4771;48.726;9.006;2023-08-12T01:07:56;4.85;;;3.63;;
9465;SDS011;4771;48.726;9.006;2023-08-12T01:10:26;3.83;;;3.38;;
9465;SDS011;4771;48.726;9.006;2023-08-12T01:12:59;6.97;;;3.60;;
9465;SDS011;4771;48.726;9.006;2023-08-12T01:15:34;8.15;;;3.78;;
9465;SDS011;4771;48.726;9.006;2023-08-12T01:18:02;4.18;;;3.78;;
9465;SDS011;4771;48.726;9.006;2023-08-12T01:20:31;4.80;;;4.03;;
9465;SDS011;4771;48.726;9.006;2023-08-12T01:23:06;4.70;;;3.75;;
9465;SDS011;4771;48.726;9.006;2023-08-12T01:25:35;5.15;;;3.88;;
9465;SDS011;4771;48.726;9.006;2023-08-12T01:28:03;4.50;;;3.95;;
9465;SDS011;4771;48.726;9.006;2023-08-12T01:30:30;5.15;;;3.83;;
9465;SDS011;4771;48.726;9.006;2023-08-12T01:33:00;4.13;;;3.70;;
9465;SDS011;4771;48.726;9.006;2023-08-12T01:35:33;4.43;;;3.83;;
9465;SDS011;4771;48.726;9.006;2023-08-12T01:38:04;4.57;;;3.75;;
9465;SDS011;4771;48.726;9.006;2023-08-12T01:40:35;6.07;;;4.00;;
9465;SDS011;4771;48.726;9.006;2023-08-12T01:43:04;6.80;;;4.43;;
9465;SDS011;4771;48.726;9.006;2023-08-12T01:45:32;7.13;;;3.80;;
9465;SDS011;4771;48.726;9.006;2023-08-12T01:47:59;8.07;;;4.25;;
9465;SDS011;4771;48.726;9.006;2023-08-12T01:50:26;5.30;;;4.25;;
9465;SDS011;4771;48.726;9.006;2023-08-12T01:52:53;7.63;;;4.38;;
9465;SDS011;4771;48.726;9.006;2023-08-12T01:55:22;5.07;;;4.15;;
9465;SDS011;4771;48.726;9.006;2023-08-12T01:57:49;8.23;;;4.60;;
9465;SDS011;4771;48.726;9.006;2023-08-12T02:00:16;5.90;;;4.15;;
9465;SDS011;4771;48.726;9.006;2023-08-12T02:02:43;6.28;;;4.60;;
9465;SDS011;4771;48.726;9.006;2023-08-12T02:05:11;7.30;;;4.88;;
9465;SDS011;4771;48.726;9.006;2023-08-12T02:07:38;5.40;;;4.10;;
9465;SDS011;4771;48.726;9.006;2023-08-12T02:10:06;5.22;;;4.10;;
9465;SDS011;4771;48.726;9.006;2023-08-12T02:12:34;4.75;;;4.35;;
9465;SDS011;4771;48.726;9.006;2023-08-12T02:15:01;6.30;;;4.57;;
9465;SDS011;4771;48.726;9.006;2023-08-12T02:17:28;6.50;;;4.22;;
9465;SDS011;4771;48.726;9.006;2023-08-12T02:19:55;8.57;;;4.00;;
9465;SDS011;4771;48.726;9.006;2023-08-12T02:22:22;4.97;;;4.28;;
9465;SDS011;4771;48.726;9.006;2023-08-12T02:24:49;5.07;;;4.05;;
9465;SDS011;4771;48.726;9.006;2023-08-12T02:27:16;5.43;;;4.45;;
9465;SDS011;4771;48.726;9.006;2023-08-12T02:29:44;5.50;;;4.10;;
9465;SDS011;4771;48.726;9.006;2023-08-12T02:32:11;8.38;;;4.45;;
9465;SDS011;4771;48.726;9.006;2023-08-12T02:34:38;5.43;;;4.43;;
9465;SDS011;4771;48.726;9.006;2023-08-12T02:37:05;6.80;;;4.60;;
9465;SDS011;4771;48.726;9.006;2023-08-12T02:39:32;5.70;;;4.40;;
9465;SDS011;4771;48.726;9.006;2023-08-12T02:41:59;4.75;;;4.25;;
9465;SDS011;4771;48.726;9.006;2023-08-12T02:44:26;5.63;;;4.20;;
9465;SDS011;4771;48.726;9.006;2023-08-12T02:46:54;7.07;;;4.10;;
9465;SDS011;4771;48.726;9.006;2023-08-12T02:49:21;5.57;;;4.18;;
9465;SDS011;4771;48.726;9.006;2023-08-12T02:51:48;7.05;;;4.45;;
9465;SDS011;4771;48.726;9.006;2023-08-12T02:54:14;6.15;;;4.30;;
9465;SDS011;4771;48.726;9.006;2023-08-12T02:56:41;5.40;;;4.28;;
9465;SDS011;4771;48.726;9.006;2023-08-12T02:59:08;7.28;;;5.13;;
9465;SDS011;4771;48.726;9.006;2023-08-12T03:01:35;7.18;;;4.32;;
9465;SDS011;4771;48.726;9.006;2023-08-12T03:04:03;6.95;;;4.20;;
9465;SDS011;4771;48.726;9.006;2023-08-12T03:06:31;4.65;;;3.90;;
9465;SDS011;4771;48.726;9.006;2023-08-12T03:08:58;7.35;;;4.30;;
9465;SDS011;4771;48.726;9.006;2023-08-12T03:11:25;5.97;;;4.07;;
9465;SDS011;4771;48.726;9.006;2023-08-12T03:13:52;6.47;;;4.05;;
9465;SDS011;4771;48.726;9.006;2023-08-12T03:16:18;5.35;;;4.30;;
9465;SDS011;4771;48.726;9.006;2023-08-12T03:18:45;4.30;;;3.90;;
9465;SDS011;4771;48.726;9.006;2023-08-12T03:21:13;5.28;;;4.03;;
9465;SDS011;4771;48.726;9.006;2023-08-12T03:23:40;5.20;;;4.35;;
9465;SDS011;4771;48.726;9.006;2023-08-12T03:26:07;5.78;;;3.75;;
9465;SDS011;4771;48.726;9.006;2023-08-12T03:28:34;4.95;;;4.10;;
9465;SDS011;4771;48.726;9.006;2023-08-12T03:31:01;5.22;;;4.05;;
9465;SDS011;4771;48.726;9.006;2023-08-12T03:33:28;6.03;;;3.83;;
9465;SDS011;4771;48.726;9.006;2023-08-12T03:35:57;5.97;;;3.85;;
9465;SDS011;4771;48.726;9.006;2023-08-12T03:38:25;4.05;;;3.65;;
9465;SDS011;4771;48.726;9.006;2023-08-12T03:40:52;5.82;;;3.72;;
9465;SDS011;4771;48.726;9.006;2023-08-12T03:43:19;6.47;;;3.85;;
9465;SDS011;4771;48.726;9.006;2023-08-12T03:45:45;5.05;;;4.28;;
9465;SDS011;4771;48.726;9.006;2023-08-12T03:48:12;4.65;;;3.88;;
9465;SDS011;4771;48.726;9.006;2023-08-12T03:50:40;4.60;;;3.85;;
9465;SDS011;4771;48.726;9.006;2023-08-12T03:53:07;5.68;;;4.30;;
9465;SDS011;4771;48.726;9.006;2023-08-12T03:55:36;5.60;;;4.20;;
9465;SDS011;4771;48.726;9.006;2023-08-12T03:58:03;4.22;;;3.85;;
9465;SDS011;4771;48.726;9.006;2023-08-12T04:00:30;4.93;;;4.32;;
9465;SDS011;4771;48.726;9.006;2023-08-12T04:02:57;7.45;;;4.35;;
9465;SDS011;4771;48.726;9.006;2023-08-12T04:05:24;4.50;;;4.10;;
9465;SDS011;4771;48.726;9.006;2023-08-12T04:07:51;5.68;;;4.07;;
9465;SDS011;4771;48.726;9.006;2023-08-12T04:10:18;4.85;;;3.78;;
9465;SDS011;4771;48.726;9.006;2023-08-12T04:12:46;5.18;;;3.63;;
9465;SDS011;4771;48.726;9.006;2023-08-12T04:15:13;4.60;;;3.83;;
9465;SDS011;4771;48.726;9.006;2023-08-12T04:17:40;6.00;;;3.50;;
9465;SDS011;4771;48.726;9.006;2023-08-12T04:20:07;4.22;;;3.70;;
9465;SDS011;4771;48.726;9.006;2023-08-12T04:22:35;5.65;;;3.60;;
9465;SDS011;4771;48.726;9.006;2023-08-12T04:25:02;4.72;;;3.75;;
9465;SDS011;4771;48.726;9.006;2023-08-12T04:27:30;4.20;;;3.80;;
9465;SDS011;4771;48.726;9.006;2023-08-12T04:29:58;4.18;;;3.72;;
9465;SDS011;4771;48.726;9.006;2023-08-12T04:32:25;6.05;;;4.10;;
9465;SDS011;4771;48.726;9.006;2023-08-12T04:34:52;5.25;;;3.95;;
9465;SDS011;4771;48.726;9.006;2023-08-12T04:37:18;5.93;;;4.32;;
9465;SDS011;4771;48.726;9.006;2023-08-12T04:39:45;7.13;;;4.38;;
9465;SDS011;4771;48.726;9.006;2023-08-12T04:42:12;4.85;;;4.10;;
9465;SDS011;4771;48.726;9.006;2023-08-12T04:44:39;7.97;;;4.30;;
9465;SDS011;4771;48.726;9.006;2023-08-12T04:47:07;5.05;;;3.90;;
9465;SDS011;4771;48.726;9.006;2023-08-12T04:49:34;4.38;;;3.97;;
9465;SDS011;4771;48.726;9.006;2023-08-12T04:52:01;5.20;;;4.30;;
9465;SDS011;4771;48.726;9.006;2023-08-12T04:54:28;4.90;;;3.90;;
9465;SDS011;4771;48.726;9.006;2023-08-12T04:56:55;4.75;;;3.75;;
9465;SDS011;4771;48.726;9.006;2023-08-12T04:59:22;6.05;;;4.10;;
9465;SDS011;4771;48.726;9.006;2023-08-12T05:01:49;7.18;;;4.53;;
9465;SDS011;4771;48.726;9.006;2023-08-12T05:04:17;6.95;;;4.07;;
9465;SDS011;4771;48.726;9.006;2023-08-12T05:06:44;4.50;;;3.80;;
9465;SDS011;4771;48.726;9.006;2023-08-12T05:09:11;4.72;;;4.07;;
9465;SDS011;4771;48.726;9.006;2023-08-12T05:11:38;5.32;;;4.35;;
9465;SDS011;4771;48.726;9.006;2023-08-12T05:14:04;4.80;;;4.30;;
9465;SDS011;4771;48.726;9.006;2023-08-12T05:16:31;5.43;;;3.83;;
9465;SDS011;4771;48.726;9.006;2023-08-12T05:18:58;7.00;;;4.80;;
9465;SDS011;4771;48.726;9.006;2023-08-12T05:21:27;5.90;;;4.35;;
9465;SDS011;4771;48.726;9.006;2023-08-12T05:23:54;4.93;;;3.95;;
9465;SDS011;4771;48.726;9.006;2023-08-12T05:26:20;6.57;;;4.47;;
9465;SDS011;4771;48.726;9.006;2023-08-12T05:28:47;7.07;;;4.00;;
9465;SDS011;4771;48.726;9.006;2023-08-12T05:31:14;6.32;;;4.65;;
9465;SDS011;4771;48.726;9.006;2023-08-12T05:33:41;5.28;;;4.40;;
9465;SDS011;4771;48.726;9.006;2023-08-12T05:36:08;9.85;;;4.30;;
9465;SDS011;4771;48.726;9.006;2023-08-12T05:38:36;4.93;;;4.30;;
9465;SDS011;4771;48.726;9.006;2023-08-12T05:41:03;4.60;;;4.15;;
9465;SDS011;4771;48.726;9.006;2023-08-12T05:43:32;6.35;;;4.57;;
9465;SDS011;4771;48.726;9.006;2023-08-12T05:45:59;5.88;;;4.45;;
9465;SDS011;4771;48.726;9.006;2023-08-12T05:48:26;5.32;;;4.40;;
9465;SDS011;4771;48.726;9.006;2023-08-12T05:50:53;5.47;;;4.60;;
9465;SDS011;4771;48.726;9.006;2023-08-12T05:53:21;8.25;;;4.50;;
9465;SDS011;4771;48.726;9.006;2023-08-12T05:55:49;4.88;;;4.38;;
9465;SDS011;4771;48.726;9.006;2023-08-12T05:58:16;5.10;;;4.60;;
9465;SDS011;4771;48.726;9.006;2023-08-12T06:00:43;5.03;;;4.40;;
9465;SDS011;4771;48.726;9.006;2023-08-12T06:03:11;4.90;;;4.25;;
9465;SDS011;4771;48.726;9.006;2023-08-12T06:05:39;5.40;;;3.63;;
9465;SDS011;4771;48.726;9.006;2023-08-12T06:08:06;6.45;;;4.18;;
9465;SDS011;4771;48.726;9.006;2023-08-12T06:10:33;6.80;;;4.93;;
9465;SDS011;4771;48.726;9.006;2023-08-12T06:13:01;6.03;;;4.90;;
9465;SDS011;4771;48.726;9.006;2023-08-12T06:15:29;6.20;;;4.22;;
9465;SDS011;4771;48.726;9.006;2023-08-12T06:17:56;7.25;;;5.13;;
9465;SDS011;4771;48.726;9.006;2023-08-12T06:20:23;5.60;;;5.00;;
9465;SDS011;4771;48.726;9.006;2023-08-12T06:22:50;5.10;;;4.50;;
9465;SDS011;4771;48.726;9.006;2023-08-12T06:25:17;6.60;;;4.93;;
9465;SDS011;4771;48.726;9.006;2023-08-12T06:27:44;11.65;;;4.93;;
9465;SDS011;4771;48.726;9.006;2023-08-12T06:30:13;6.95;;;5.18;;
9465;SDS011;4771;48.726;9.006;2023-08-12T06:32:40;6.47;;;4.80;;
9465;SDS011;4771;48.726;9.006;2023-08-12T06:35:08;5.72;;;4.25;;
9465;SDS011;4771;48.726;9.006;2023-08-12T06:37:35;6.72;;;4.68;;
9465;SDS011;4771;48.726;9.006;2023-08-12T06:40:02;6.05;;;4.93;;
9465;SDS011;4771;48.726;9.006;2023-08-12T06:42:30;6.65;;;4.60;;
9465;SDS011;4771;48.726;9.006;2023-08-12T06:44:57;5.25;;;4.40;;
9465;SDS011;4771;48.726;9.006;2023-08-12T06:47:27;5.55;;;4.60;;
9465;SDS011;4771;48.726;9.006;2023-08-12T06:49:54;5.50;;;4.68;;
9465;SDS011;4771;48.726;9.006;2023-08-12T06:52:21;7.65;;;4.32;;
9465;SDS011;4771;48.726;9.006;2023-08-12T06:54:49;5.03;;;4.57;;
9465;SDS011;4771;48.726;9.006;2023-08-12T06:57:15;4.88;;;4.13;;
9465;SDS011;4771;48.726;9.006;2023-08-12T06:59:42;6.22;;;4.60;;
9465;SDS011;4771;48.726;9.006;2023-08-12T07:02:09;5.32;;;4.80;;
9465;SDS011;4771;48.726;9.006;2023-08-12T07:04:37;6.38;;;4.20;;
9465;SDS011;4771;48.726;9.006;2023-08-12T07:07:04;5.25;;;4.30;;
9465;SDS011;4771;48.726;9.006;2023-08-12T07:09:31;4.47;;;4.07;;
9465;SDS011;4771;48.726;9.006;2023-08-12T07:11:58;7.90;;;4.38;;
9465;SDS011;4771;48.726;9.006;2023-08-12T07:14:26;6.07;;;4.40;;
9465;SDS011;4771;48.726;9.006;2023-08-12T07:16:54;5.80;;;4.35;;
9465;SDS011;4771;48.726;9.006;2023-08-12T07:19:21;5.22;;;4.32;;
9465;SDS011;4771;48.726;9.006;2023-08-12T07:21:50;4.85;;;4.20;;
9465;SDS011;4771;48.726;9.006;2023-08-12T07:24:16;6.72;;;5.25;;
9465;SDS011;4771;48.726;9.006;2023-08-12T07:26:43;5.45;;;4.53;;
9465;SDS011;4771;48.726;9.006;2023-08-12T07:29:10;5.60;;;4.93;;
9465;SDS011;4771;48.726;9.006;2023-08-12T07:31:37;6.70;;;4.47;;
9465;SDS011;4771;48.726;9.006;2023-08-12T07:34:04;5.45;;;4.30;;
9465;SDS011;4771;48.726;9.006;2023-08-12T07:36:31;4.97;;;3.90;;
9465;SDS011;4771;48.726;9.006;2023-08-12T07:39:00;5.40;;;3.88;;
9465;SDS011;4771;48.726;9.006;2023-08-12T07:41:27;6.55;;;4.10;;
9465;SDS011;4771;48.726;9.006;2023-08-12T07:43:54;5.00;;;4.47;;
9465;SDS011;4771;48.726;9.006;2023-08-12T07:46:21;4.43;;;4.03;;
9465;SDS011;4771;48.726;9.006;2023-08-12T07:48:48;5.15;;;4.20;;
9465;SDS011;4771;48.726;9.006;2023-08-12T07:51:15;8.23;;;4.03;;
9465;SDS011;4771;48.726;9.006;2023-08-12T07:53:42;7.00;;;3.88;;
9465;SDS011;4771;48.726;9.006;2023-08-12T07:56:10;5.88;;;3.72;;
9465;SDS011;4771;48.726;9.006;2023-08-12T07:58:37;6.13;;;3.60;;
9465;SDS011;4771;48.726;9.006;2023-08-12T08:01:04;5.07;;;3.67;;
9465;SDS011;4771;48.726;9.006;2023-08-12T08:03:33;4.38;;;3.95;;
9465;SDS011;4771;48.726;9.006;2023-08-12T08:06:00;4.10;;;3.65;;
9465;SDS011;4771;48.726;9.006;2023-08-12T08:08:26;6.60;;;3.78;;
9465;SDS011;4771;48.726;9.006;2023-08-12T08:10:53;5.50;;;3.80;;
9465;SDS011;4771;48.726;9.006;2023-08-12T08:13:22;4.43;;;3.85;;
9465;SDS011;4771;48.726;9.006;2023-08-12T08:15:48;3.85;;;3.42;;
9465;SDS011;4771;48.726;9.006;2023-08-12T08:18:15;5.43;;;3.65;;
9465;SDS011;4771;48.726;9.006;2023-08-12T08:20:42;5.25;;;3.65;;
9465;SDS011;4771;48.726;9.006;2023-08-12T08:23:10;6.68;;;3.83;;
9465;SDS011;4771;48.726;9.006;2023-08-12T08:25:37;3.88;;;3.50;;
9465;SDS011;4771;48.726;9.006;2023-08-12T08:28:04;3.88;;;3.30;;
9465;SDS011;4771;48.726;9.006;2023-08-12T08:30:32;5.55;;;3.08;;
9465;SDS011;4771;48.726;9.006;2023-08-12T08:32:59;6.15;;;2.88;;
9465;SDS011;4771;48.726;9.006;2023-08-12T08:35:26;4.05;;;2.92;;
9465;SDS011;4771;48.726;9.006;2023-08-12T08:37:53;3.38;;;3.08;;
9465;SDS011;4771;48.726;9.006;2023-08-12T08:40:19;4.65;;;3.30;;
9465;SDS011;4771;48.726;9.006;2023-08-12T08:42:46;4.70;;;3.30;;
9465;SDS011;4771;48.726;9.006;2023-08-12T08:45:18;3.85;;;2.70;;
9465;SDS011;4771;48.726;9.006;2023-08-12T08:47:49;5.90;;;3.45;;
9465;SDS011;4771;48.726;9.006;2023-08-12T08:50:17;3.55;;;3.20;;
9465;SDS011;4771;48.726;9.006;2023-08-12T08:52:44;7.95;;;3.15;;
9465;SDS011;4771;48.726;9.006;2023-08-12T08:55:12;3.30;;;3.00;;
9465;SDS011;4771;48.726;9.006;2023-08-12T08:57:39;3.53;;;3.03;;
9465;SDS011;4771;48.726;9.006;2023-08-12T09:00:09;3.20;;;2.50;;
9465;SDS011;4771;48.726;9.006;2023-08-12T09:02:37;2.80;;;2.60;;
9465;SDS011;4771;48.726;9.006;2023-08-12T09:05:07;5.00;;;2.88;;
9465;SDS011;4771;48.726;9.006;2023-08-12T09:07:34;6.13;;;2.88;;
9465;SDS011;4771;48.726;9.006;2023-08-12T09:10:01;5.03;;;3.33;;
9465;SDS011;4771;48.726;9.006;2023-08-12T09:12:30;5.13;;;2.97;;
9465;SDS011;4771;48.726;9.006;2023-08-12T09:14:57;6.07;;;2.70;;
9465;SDS011;4771;48.726;9.006;2023-08-12T09:17:24;3.58;;;2.95;;
9465;SDS011;4771;48.726;9.006;2023-08-12T09:19:51;2.88;;;2.55;;
9465;SDS011;4771;48.726;9.006;2023-08-12T09:22:20;3.70;;;2.97;;
9465;SDS011;4771;48.726;9.006;2023-08-12T09:24:50;3.33;;;3.00;;
9465;SDS011;4771;48.726;9.006;2023-08-12T09:27:17;3.55;;;3.03;;
9465;SDS011;4771;48.726;9.006;2023-08-12T09:29:44;3.53;;;2.60;;
9465;SDS011;4771;48.726;9.006;2023-08-12T09:32:11;3.22;;;2.83;;
9465;SDS011;4771;48.726;9.006;2023-08-12T09:34:45;4.20;;;2.50;;
9465;SDS011;4771;48.726;9.006;2023-08-12T09:37:13;6.68;;;3.08;;
9465;SDS011;4771;48.726;9.006;2023-08-12T09:39:42;7.60;;;2.80;;
9465;SDS011;4771;48.726;9.006;2023-08-12T09:42:10;3.40;;;3.05;;
9465;SDS011;4771;48.726;9.006;2023-08-12T09:44:37;4.32;;;2.80;;
9465;SDS011;4771;48.726;9.006;2023-08-12T09:47:05;13.07;;;2.83;;
9465;SDS011;4771;48.726;9.006;2023-08-12T09:49:33;6.50;;;3.40;;
9465;SDS011;4771;48.726;9.006;2023-08-12T09:52:00;6.72;;;2.90;;
9465;SDS011;4771;48.726;9.006;2023-08-12T09:54:28;5.13;;;2.83;;
9465;SDS011;4771;48.726;9.006;2023-08-12T09:56:58;3.47;;;3.00;;
9465;SDS011;4771;48.726;9.006;2023-08-12T09:59:27;6.70;;;3.17;;
9465;SDS011;4771;48.726;9.006;2023-08-12T10:01:57;3.97;;;3.20;;
9465;SDS011;4771;48.726;9.006;2023-08-12T10:04:26;3.95;;;3.05;;
9465;SDS011;4771;48.726;9.006;2023-08-12T10:06:55;5.60;;;2.95;;
9465;SDS011;4771;48.726;9.006;2023-08-12T10:09:22;5.00;;;3.20;;
9465;SDS011;4771;48.726;9.006;2023-08-12T10:11:51;6.85;;;2.90;;
9465;SDS011;4771;48.726;9.006;2023-08-12T10:14:20;3.72;;;2.95;;
9465;SDS011;4771;48.726;9.006;2023-08-12T10:16:49;4.90;;;3.08;;
9465;SDS011;4771;48.726;9.006;2023-08-12T10:19:16;5.80;;;3.30;;
9465;SDS011;4771;48.726;9.006;2023-08-12T10:21:46;3.80;;;2.70;;
9465;SDS011;4771;48.726;9.006;2023-08-12T10:24:15;3.40;;;2.83;;
9465;SDS011;4771;48.726;9.006;2023-08-12T10:26:43;3.92;;;2.65;;
9465;SDS011;4771;48.726;9.006;2023-08-12T10:29:11;4.85;;;2.80;;
9465;SDS011;4771;48.726;9.006;2023-08-12T10:31:39;2.78;;;2.58;;
9465;SDS011;4771;48.726;9.006;2023-08-12T10:34:17;5.07;;;3.03;;
9465;SDS011;4771;48.726;9.006;2023-08-12T10:36:45;6.18;;;3.00;;
9465;SDS011;4771;48.726;9.006;2023-08-12T10:39:12;5.82;;;2.90;;
9465;SDS011;4771;48.726;9.006;2023-08-12T10:41:43;4.60;;;2.80;;
9465;SDS011;4771;48.726;9.006;2023-08-12T10:44:17;3.53;;;2.60;;
9465;SDS011;4771;48.726;9.006;2023-08-12T10:46:51;5.22;;;2.92;;
9465;SDS011;4771;48.726;9.006;2023-08-12T10:49:19;3.53;;;2.65;;
9465;SDS011;4771;48.726;9.006;2023-08-12T10:51:47;7.03;;;2.63;;
9465;SDS011;4771;48.726;9.006;2023-08-12T10:54:15;3.13;;;2.80;;
9465;SDS011;4771;48.726;9.006;2023-08-12T11:02:22;4.55;;;2.25;;
9465;SDS011;4771;48.726;9.006;2023-08-12T11:04:53;2.92;;;2.50;;
9465;SDS011;4771;48.726;9.006;2023-08-12T11:07:27;6.68;;;2.70;;
9465;SDS011;4771;48.726;9.006;2023-08-12T11:09:58;4.47;;;2.50;;
9465;SDS011;4771;48.726;9.006;2023-08-12T11:12:30;3.90;;;2.80;;
9465;SDS011;4771;48.726;9.006;2023-08-12T11:14:59;6.18;;;2.88;;
9465;SDS011;4771;48.726;9.006;2023-08-12T11:17:30;6.97;;;2.95;;
9465;SDS011;4771;48.726;9.006;2023-08-12T11:20:00;6.57;;;2.40;;
9465;SDS011;4771;48.726;9.006;2023-08-12T11:22:29;4.55;;;2.95;;
9465;SDS011;4771;48.726;9.006;2023-08-12T11:24:57;4.57;;;2.70;;
9465;SDS011;4771;48.726;9.006;2023-08-12T11:27:24;3.55;;;2.40;;
9465;SDS011;4771;48.726;9.006;2023-08-12T11:29:51;3.00;;;2.70;;
9465;SDS011;4771;48.726;9.006;2023-08-12T11:32:17;2.70;;;2.50;;
9465;SDS011;4771;48.726;9.006;2023-08-12T11:34:46;5.78;;;3.10;;
9465;SDS011;4771;48.726;9.006;2023-08-12T11:37:13;3.88;;;2.75;;
9465;SDS011;4771;48.726;9.006;2023-08-12T11:39:40;4.78;;;2.67;;
9465;SDS011;4771;48.726;9.006;2023-08-12T11:42:07;4.50;;;2.75;;
9465;SDS011;4771;48.726;9.006;2023-08-12T11:44:34;3.40;;;2.70;;
9465;SDS011;4771;48.726;9.006;2023-08-12T11:47:01;5.53;;;2.95;;
9465;SDS011;4771;48.726;9.006;2023-08-12T11:49:28;3.95;;;2.85;;
9465;SDS011;4771;48.726;9.006;2023-08-12T11:51:56;7.30;;;2.90;;
9465;SDS011;4771;48.726;9.006;2023-08-12T11:54:23;4.25;;;2.50;;
9465;SDS011;4771;48.726;9.006;2023-08-12T11:56:51;6.60;;;2.70;;
9465;SDS011;4771;48.726;9.006;2023-08-12T11:59:20;5.80;;;2.95;;
9465;SDS011;4771;48.726;9.006;2023-08-12T12:01:48;8.18;;;2.95;;
9465;SDS011;4771;48.726;9.006;2023-08-12T12:04:15;5.13;;;2.90;;
9465;SDS011;4771;48.726;9.006;2023-08-12T12:06:45;8.65;;;3.35;;
9465;SDS011;4771;48.726;9.006;2023-08-12T12:09:13;3.90;;;3.22;;
9465;SDS011;4771;48.726;9.006;2023-08-12T12:11:46;7.85;;;3.58;;
9465;SDS011;4771;48.726;9.006;2023-08-12T12:14:17;7.97;;;3.65;;
9465;SDS011;4771;48.726;9.006;2023-08-12T12:16:45;5.75;;;3.50;;
9465;SDS011;4771;48.726;9.006;2023-08-12T12:19:14;11.57;;;4.38;;
9465;SDS011;4771;48.726;9.006;2023-08-12T12:21:44;17.55;;;4.97;;
9465;SDS011;4771;48.726;9.006;2023-08-12T12:24:13;5.93;;;3.80;;
9465;SDS011;4771;48.726;9.006;2023-08-12T12:26:41;5.40;;;3.30;;
9465;SDS011;4771;48.726;9.006;2023-08-12T12:29:08;9.57;;;3.60;;
9465;SDS011;4771;48.726;9.006;2023-08-12T12:31:37;6.45;;;3.45;;
9465;SDS011;4771;48.726;9.006;2023-08-12T12:34:05;7.18;;;3.17;;
9465;SDS011;4771;48.726;9.006;2023-08-12T12:36:33;7.03;;;3.60;;
9465;SDS011;4771;48.726;9.006;2023-08-12T12:39:01;6.20;;;3.65;;
9465;SDS011;4771;48.726;9.006;2023-08-12T12:41:29;6.65;;;3.67;;
9465;SDS011;4771;48.726;9.006;2023-08-12T12:43:57;6.03;;;3.63;;
9465;SDS011;4771;48.726;9.006;2023-08-12T12:46:25;7.82;;;3.83;;
9465;SDS011;4771;48.726;9.006;2023-08-12T12:48:52;5.97;;;3.75;;
9465;SDS011;4771;48.726;9.006;2023-08-12T12:51:19;7.35;;;4.13;;
9465;SDS011;4771;48.726;9.006;2023-08-12T12:53:46;5.50;;;4.13;;
9465;SDS011;4771;48.726;9.006;2023-08-12T12:56:13;5.45;;;3.92;;
9465;SDS011;4771;48.726;9.006;2023-08-12T12:58:41;9.10;;;4.43;;
9465;SDS011;4771;48.726;9.006;2023-08-12T13:01:08;6.85;;;3.85;;
9465;SDS011;4771;48.726;9.006;2023-08-12T13:03:35;6.57;;;3.95;;
9465;SDS011;4771;48.726;9.006;2023-08-12T13:06:02;7.53;;;3.75;;
9465;SDS011;4771;48.726;9.006;2023-08-12T13:08:29;6.60;;;3.42;;
9465;SDS011;4771;48.726;9.006;2023-08-12T13:10:57;6.30;;;3.20;;
9465;SDS011;4771;48.726;9.006;2023-08-12T13:13:24;5.05;;;3.28;;
9465;SDS011;4771;48.726;9.006;2023-08-12T13:15:52;7.65;;;3.60;;
9465;SDS011;4771;48.726;9.006;2023-08-12T13:18:19;4.63;;;3.13;;
9465;SDS011;4771;48.726;9.006;2023-08-12T13:20:46;4.97;;;3.40;;
9465;SDS011;4771;48.726;9.006;2023-08-12T13:23:13;6.45;;;3.75;;
9465;SDS011;4771;48.726;9.006;2023-08-12T13:25:40;5.50;;;3.72;;
9465;SDS011;4771;48.726;9.006;2023-08-12T13:28:07;6.20;;;3.60;;
9465;SDS011;4771;48.726;9.006;2023-08-12T13:30:34;4.63;;;3.53;;
9465;SDS011;4771;48.726;9.006;2023-08-12T13:33:03;8.77;;;3.65;;
9465;SDS011;4771;48.726;9.006;2023-08-12T13:35:31;6.90;;;3.72;;
9465;SDS011;4771;48.726;9.006;2023-08-12T13:37:57;5.32;;;3.30;;
9465;SDS011;4771;48.726;9.006;2023-08-12T13:40:24;5.03;;;3.00;;
9465;SDS011;4771;48.726;9.006;2023-08-12T13:42:51;5.28;;;3.90;;
9465;SDS011;4771;48.726;9.006;2023-08-12T13:45:18;5.63;;;3.30;;
9465;SDS011;4771;48.726;9.006;2023-08-12T13:47:45;4.60;;;3.35;;
9465;SDS011;4771;48.726;9.006;2023-08-12T13:50:13;5.80;;;3.35;;
9465;SDS011;4771;48.726;9.006;2023-08-12T13:52:40;4.22;;;3.00;;
9465;SDS011;4771;48.726;9.006;2023-08-12T13:55:07;5.97;;;3.83;;
9465;SDS011;4771;48.726;9.006;2023-08-12T13:57:35;4.32;;;3.10;;
9465;SDS011;4771;48.726;9.006;2023-08-12T14:00:02;5.20;;;3.00;;
9465;SDS011;4771;48.726;9.006;2023-08-12T14:02:34;5.25;;;3.40;;
9465;SDS011;4771;48.726;9.006;2023-08-12T14:05:01;4.13;;;2.92;;
9465;SDS011;4771;48.726;9.006;2023-08-12T14:07:29;4.28;;;2.75;;
9465;SDS011;4771;48.726;9.006;2023-08-12T14:09:56;4.68;;;2.72;;
9465;SDS011;4771;48.726;9.006;2023-08-12T14:12:24;4.10;;;2.95;;
9465;SDS011;4771;48.726;9.006;2023-08-12T14:14:51;4.72;;;2.85;;
9465;SDS011;4771;48.726;9.006;2023-08-12T14:17:18;3.58;;;2.50;;
9465;SDS011;4771;48.726;9.006;2023-08-12T14:19:48;3.80;;;2.75;;
9465;SDS011;4771;48.726;9.006;2023-08-12T14:22:16;4.00;;;2.42;;
9465;SDS011;4771;48.726;9.006;2023-08-12T14:24:44;4.25;;;2.72;;
9465;SDS011;4771;48.726;9.006;2023-08-12T14:27:13;3.90;;;2.80;;
9465;SDS011;4771;48.726;9.006;2023-08-12T14:29:41;3.33;;;2.88;;
9465;SDS011;4771;48.726;9.006;2023-08-12T14:32:09;3.65;;;2.70;;
9465;SDS011;4771;48.726;9.006;2023-08-12T14:34:35;3.70;;;2.78;;
9465;SDS011;4771;48.726;9.006;2023-08-12T14:37:03;3.72;;;2.65;;
9465;SDS011;4771;48.726;9.006;2023-08-12T14:39:32;2.85;;;2.25;;
9465;SDS011;4771;48.726;9.006;2023-08-12T14:42:00;3.10;;;2.22;;
9465;SDS011;4771;48.726;9.006;2023-08-12T14:44:28;3.33;;;2.30;;
9465;SDS011;4771;48.726;9.006;2023-08-12T14:46:57;4.03;;;2.40;;
9465;SDS011;4771;48.726;9.006;2023-08-12T14:49:24;4.72;;;2.20;;
9465;SDS011;4771;48.726;9.006;2023-08-12T14:51:51;4.20;;;2.58;;
9465;SDS011;4771;48.726;9.006;2023-08-12T14:54:18;3.85;;;2.15;;
9465;SDS011;4771;48.726;9.006;2023-08-12T14:56:44;3.90;;;2.40;;
9465;SDS011;4771;48.726;9.006;2023-08-12T14:59:13;2.83;;;2.28;;
9465;SDS011;4771;48.726;9.006;2023-08-12T15:01:39;4.10;;;2.47;;
9465;SDS011;4771;48.726;9.006;2023-08-12T15:04:06;3.72;;;2.22;;
9465;SDS011;4771;48.726;9.006;2023-08-12T15:06:33;3.88;;;2.53;;
9465;SDS011;4771;48.726;9.006;2023-08-12T15:09:00;5.13;;;2.35;;
9465;SDS011;4771;48.726;9.006;2023-08-12T15:11:27;4.40;;;2.15;;
9465;SDS011;4771;48.726;9.006;2023-08-12T15:13:54;3.58;;;2.20;;
9465;SDS011;4771;48.726;9.006;2023-08-12T15:16:22;4.45;;;2.33;;
9465;SDS011;4771;48.726;9.006;2023-08-12T15:18:49;6.45;;;2.25;;
9465;SDS011;4771;48.726;9.006;2023-08-12T15:21:16;3.35;;;2.47;;
9465;SDS011;4771;48.726;9.006;2023-08-12T15:23:43;4.07;;;2.28;;